Terminal Aerodrome Forecast
Issued by NWS

Home | Current Version | Previous Version | Text Only | Print | Product List | Glossary Off
Versions: 1 2 3 4 5 6 7 8 9 10 11 12 13 14 15 16 17 18 19 20 21 22 23 24 25 26

612
FTUS43 KABR 241910 AAA
TAFMBG
TAF AMD
KMBG 241910Z 2419/2518 32005KT 1SM -SN BKN019 BKN026 OVC035
     FM242000 19006KT 2SM -SN BR OVC015
     FM242100 19006KT P6SM BKN020
     FM242300 21005KT P6SM BKN030
     FM250000 21006KT P6SM SCT080=

USA.gov is the U.S. government's official web portal to all federal, state and local government web resources and services.